createdAt,value
2023-01-11T00:00:52.968Z,25.5
2023-01-11T00:06:15.308Z,25.4
2023-01-11T00:11:22.480Z,25.4
2023-01-11T00:16:45.279Z,25.4
2023-01-11T00:22:07.944Z,25.4
2023-01-11T00:27:14.610Z,25.4
2023-01-11T00:32:37.481Z,25.4
2023-01-11T00:38:00.125Z,25.4
2023-01-11T00:43:22.806Z,25.4
2023-01-11T00:48:45.922Z,25.3
2023-01-11T00:54:08.504Z,25.3
2023-01-11T00:59:31.199Z,25.3
2023-01-11T01:04:38.486Z,25.3
2023-01-11T01:09:44.837Z,25.3
2023-01-11T01:14:50.909Z,25.3
2023-01-11T01:19:57.783Z,25.3
2023-01-11T01:25:19.895Z,25.3
2023-01-11T01:30:26.789Z,25.3
2023-01-11T01:35:48.755Z,25.3
2023-01-11T01:40:40.156Z,25.2
2023-01-11T01:45:15.751Z,25.2
2023-01-11T01:50:22.116Z,25.2
2023-01-11T01:55:29.006Z,25.2
2023-01-11T02:00:20.500Z,25.1
2023-01-11T02:05:27.960Z,25.2
2023-01-11T02:10:35.236Z,25.3
2023-01-11T02:15:25.750Z,25.5
2023-01-11T02:20:33.171Z,25.8
2023-01-11T02:25:40.764Z,26.3
2023-01-11T02:30:47.807Z,26.8
2023-01-11T02:35:55.141Z,27.4
2023-01-11T02:41:17.623Z,27.9
2023-01-11T02:46:09.329Z,28.5
2023-01-11T02:51:16.654Z,29.1
2023-01-11T02:56:39.502Z,29.6
2023-01-11T03:01:46.466Z,30.3
2023-01-11T03:06:53.894Z,30.9
2023-01-11T03:12:01.083Z,31.6
2023-01-11T03:17:08.931Z,32.2
2023-01-11T03:22:31.132Z,32.8
2023-01-11T03:27:54.263Z,33.4
2023-01-11T03:33:16.292Z,34.1
2023-01-11T03:38:38.747Z,34.4
2023-01-11T03:43:45.463Z,34.6
2023-01-11T03:49:08.023Z,34.7
2023-01-11T03:54:30.329Z,34.7
2023-01-11T03:59:53.035Z,34.8
2023-01-11T04:04:59.860Z,34.8
2023-01-11T04:10:06.918Z,34.8
2023-01-11T04:20:21.354Z,34.7
2023-01-11T04:25:44.008Z,34.7
2023-01-11T04:36:13.861Z,34.7
2023-01-11T04:41:39.216Z,34.7
2023-01-11T04:47:02.387Z,34.6
2023-01-11T04:52:24.124Z,34.6
2023-01-11T04:57:47.156Z,34.6
2023-01-11T05:03:10.677Z,34.6
2023-01-11T05:08:32.992Z,34.6
2023-01-11T05:13:55.080Z,34.6
2023-01-11T05:18:46.467Z,34.5
2023-01-11T05:29:00.486Z,34.5
2023-01-11T05:39:29.378Z,34.4
2023-01-11T05:44:52.115Z,34.4
2023-01-11T05:50:14.113Z,34.4
2023-01-11T05:55:36.892Z,34.4
2023-01-11T06:00:59.627Z,34.3
2023-01-11T06:06:21.944Z,34.3
2023-01-11T06:11:44.573Z,34.3
2023-01-11T06:16:52.459Z,34.3
2023-01-11T06:22:15.433Z,34.3
2023-01-11T06:27:24.347Z,34.3
2023-01-11T06:32:47.058Z,34.2
2023-01-11T06:38:09.523Z,34.2
2023-01-11T06:43:31.732Z,34.1
2023-01-11T06:48:56.894Z,34.1
2023-01-11T06:54:19.911Z,34.1
2023-01-11T06:59:43.734Z,34
2023-01-11T07:05:08.283Z,34
2023-01-11T07:10:30.776Z,34
2023-01-11T07:15:53.187Z,33.9
2023-01-11T07:21:15.856Z,33.9
2023-01-11T07:26:37.924Z,33.9
2023-01-11T07:32:18.091Z,33.9
2023-01-11T07:38:00.884Z,33.8
2023-01-11T07:43:37.517Z,33.9
2023-01-11T07:54:18.150Z,33.9
2023-01-11T07:59:40.296Z,34
2023-01-11T08:05:04.247Z,34
2023-01-11T08:10:27.088Z,34
2023-01-11T08:15:51.963Z,34
2023-01-11T08:21:15.020Z,34
2023-01-11T08:26:37.595Z,47.7
2023-01-11T08:32:00.856Z,45.9
2023-01-11T08:37:23.825Z,43.3
2023-01-11T08:42:46.531Z,37.4
2023-01-11T08:48:15.281Z,51.2
2023-01-11T08:53:37.950Z,54.6
2023-01-11T08:59:01.720Z,55.8
2023-01-11T09:04:39.897Z,56.8
2023-01-11T09:10:01.971Z,52.6
2023-01-11T09:15:24.627Z,50.3
2023-01-11T09:20:47.757Z,49.7
2023-01-11T09:31:02.022Z,47.6
2023-01-11T09:36:25.884Z,46.2
2023-01-11T09:41:49.825Z,43.4
2023-01-11T09:47:14.883Z,41.7
2023-01-11T09:52:22.191Z,40.4
2023-01-11T09:57:45.542Z,39.5
2023-01-11T10:03:08.719Z,38.8
2023-01-11T10:19:11.262Z,38.2
2023-01-11T10:24:47.104Z,37.1
2023-01-11T10:30:09.542Z,36.8
2023-01-11T10:35:32.037Z,36.6
2023-01-11T10:40:55.650Z,36.4
2023-01-11T10:46:17.891Z,36.3
2023-01-11T10:51:28.718Z,36.2
2023-01-11T10:57:02.144Z,36.1
2023-01-11T11:02:21.166Z,35.9
2023-01-11T11:07:44.615Z,35.7
2023-01-11T11:12:52.527Z,35.6
2023-01-11T11:18:00.951Z,35.4
2023-01-11T11:23:24.285Z,35.3
2023-01-11T11:28:47.864Z,35.1
2023-01-11T11:33:55.781Z,35
2023-01-11T11:39:18.658Z,34.9
2023-01-11T11:44:41.983Z,34.8
2023-01-11T11:50:04.164Z,34.7
2023-01-11T11:55:47.561Z,34.6
2023-01-11T12:01:10.910Z,34.4
2023-01-11T12:11:50.932Z,34.3
2023-01-11T12:17:17.940Z,34.1
2023-01-11T12:22:40.303Z,34.1
2023-01-11T12:28:03.000Z,34
2023-01-11T12:33:26.512Z,33.9
2023-01-11T12:38:02.166Z,33.9
2023-01-11T12:42:52.720Z,33.8
2023-01-11T12:48:15.369Z,33.8
2023-01-11T12:53:38.883Z,33.7
2023-01-11T12:59:03.756Z,33.6
2023-01-11T13:04:28.982Z,33.6
2023-01-11T13:09:53.785Z,33.5
2023-01-11T13:15:00.865Z,33.4
2023-01-11T13:20:23.680Z,33.4
2023-01-11T13:26:05.876Z,33.3
2023-01-11T13:31:33.032Z,33.3
2023-01-11T13:37:07.950Z,33.3
2023-01-11T13:42:32.812Z,33.2
2023-01-11T13:47:39.205Z,33.1
2023-01-11T13:53:03.587Z,33.1
2023-01-11T13:58:29.559Z,33.1
2023-01-11T14:03:52.177Z,33
2023-01-11T14:09:14.780Z,33
2023-01-11T14:14:38.360Z,32.9
2023-01-11T14:20:01.153Z,32.9
2023-01-11T14:25:23.843Z,32.9
2023-01-11T14:30:47.615Z,32.8
2023-01-11T14:36:09.975Z,32.8
2023-01-11T14:41:32.995Z,32.7
2023-01-11T14:47:06.305Z,32.7
2023-01-11T14:52:51.044Z,32.6
2023-01-11T14:58:12.675Z,32.6
2023-01-11T15:03:39.206Z,32.6
2023-01-11T15:09:01.656Z,32.6
2023-01-11T15:14:23.744Z,32.5
2023-01-11T15:19:33.825Z,32.5
2023-01-11T15:24:56.188Z,32.3
2023-01-11T15:30:20.404Z,32.1
2023-01-11T15:35:44.102Z,32.1
2023-01-11T15:40:50.400Z,32.1
2023-01-11T15:46:12.397Z,32.1
2023-01-11T15:51:36.390Z,32.1
2023-01-11T15:56:43.715Z,32.1
2023-01-11T16:02:06.190Z,32.1
2023-01-11T16:12:22.243Z,32.1
2023-01-11T16:22:07.215Z,31.9
2023-01-11T16:27:30.125Z,31.9
2023-01-11T16:32:38.594Z,31.9
2023-01-11T16:38:03.551Z,31.9
2023-01-11T16:43:25.997Z,31.8
2023-01-11T16:48:48.413Z,31.8
2023-01-11T16:53:56.452Z,31.7
2023-01-11T17:04:35.612Z,31.7
2023-01-11T17:09:49.182Z,31.6
2023-01-11T17:20:20.311Z,31.6
2023-01-11T17:25:46.127Z,31.4
2023-01-11T17:31:09.111Z,31.3
2023-01-11T17:36:15.888Z,31.3
2023-01-11T17:41:42.267Z,31.3
2023-01-11T17:47:05.971Z,31.3
2023-01-11T17:51:56.600Z,31.3
2023-01-11T18:02:35.345Z,31.3
2023-01-11T18:07:59.802Z,31.2
2023-01-11T18:13:09.529Z,31.2
2023-01-11T18:18:34.967Z,31.1
2023-01-11T18:23:59.511Z,31.1
2023-01-11T18:29:24.553Z,31.1
2023-01-11T18:45:09.673Z,31
2023-01-11T18:50:36.518Z,30.9
2023-01-11T18:56:00.513Z,30.9
2023-01-11T19:01:26.414Z,30.9
2023-01-11T19:07:13.521Z,30.9
2023-01-11T19:12:41.113Z,30.9
2023-01-11T19:18:08.526Z,30.8
2023-01-11T19:23:41.996Z,30.8
2023-01-11T19:28:59.261Z,30.8
2023-01-11T19:39:33.116Z,30.6
2023-01-11T19:44:50.323Z,30.6
2023-01-11T19:50:42.923Z,30.6
2023-01-11T20:01:21.350Z,30.6
2023-01-11T20:06:51.433Z,30.6
2023-01-11T20:12:00.576Z,30.6
2023-01-11T20:17:27.297Z,30.6
2023-01-11T20:27:50.335Z,30.7
2023-01-11T20:33:41.340Z,30.8
2023-01-11T20:39:07.421Z,31.2
2023-01-11T20:44:17.336Z,31.6
2023-01-11T20:54:52.448Z,32.7
2023-01-11T21:00:16.279Z,33.3
2023-01-11T21:05:42.304Z,33.9
2023-01-11T21:11:06.123Z,34.5
2023-01-11T21:16:14.048Z,34.9
2023-01-11T21:21:37.836Z,35.1
2023-01-11T21:26:45.859Z,35.2
2023-01-11T21:32:09.611Z,35.2
2023-01-11T21:37:31.862Z,35.3
2023-01-11T21:42:55.067Z,35.3
2023-01-11T21:48:18.152Z,35.3
2023-01-11T21:53:41.265Z,35.3
2023-01-11T21:58:48.469Z,35.3
2023-01-11T22:03:39.587Z,35.3
2023-01-11T22:09:02.698Z,35.3
2023-01-11T22:14:36.845Z,35.3
2023-01-11T22:19:59.616Z,35.3
2023-01-11T22:25:22.487Z,35.2
2023-01-11T22:30:45.849Z,35.2
2023-01-11T22:36:08.941Z,35.1
2023-01-11T22:41:30.995Z,35.1
2023-01-11T22:46:54.272Z,35.1
2023-01-11T22:52:16.657Z,35.1
2023-01-11T22:57:08.137Z,35.1
2023-01-11T23:02:15.619Z,35.1
2023-01-11T23:07:38.999Z,35.1
2023-01-11T23:13:00.840Z,35.1
2023-01-11T23:18:10.435Z,35
2023-01-11T23:23:32.998Z,35
2023-01-11T23:28:40.186Z,34.9
2023-01-11T23:33:47.501Z,34.9
2023-01-11T23:38:54.705Z,34.9
2023-01-11T23:44:17.064Z,34.9
2023-01-11T23:49:39.655Z,34.9
2023-01-11T23:55:02.464Z,34.9
